<?xml version="1.0" encoding="UTF-8" standalone="no" ?>
<gpx xmlns="http://www.topografix.com/GPX/1/1" xmlns:xsi="http://www.w3.org/2001/XMLSchema-instance" xsi:schemaLocation="http://www.topografix.com/GPX/1/1 http://www.topografix.com/GPX/1/1/gpx.xsd" version="1.1" creator="VisuGPX - https://www.visugpx.com">
  <metadata>
    <name>Trail Apremont-LacGenin-Couloir Basset 13km</name>
  </metadata>
  <trk>
    <name><![CDATA[Trail Apremont-LacGenin 20km]]></name>
    <extensions>
      <line xmlns="http://www.topografix.com/GPX/gpx_style/0/2">
        <color>0000FF</color>
        <width>4</width>
      </line>
    </extensions>
    <trkseg>
      <trkpt lat="46.20754" lon="5.65957">
        <ele>906.8</ele>
      </trkpt>
      <trkpt lat="46.20764" lon="5.66016">
        <ele>908.5</ele>
      </trkpt>
      <trkpt lat="46.20769" lon="5.66035">
        <ele>908.5</ele>
      </trkpt>
      <trkpt lat="46.20781" lon="5.66077">
        <ele>908.4</ele>
      </trkpt>
      <trkpt lat="46.20789" lon="5.66115">
        <ele>907.9</ele>
      </trkpt>
      <trkpt lat="46.20799" lon="5.66169">
        <ele>907.4</ele>
      </trkpt>
      <trkpt lat="46.20805" lon="5.66197">
        <ele>905.9</ele>
      </trkpt>
      <trkpt lat="46.20814" lon="5.66222">
        <ele>904.1</ele>
      </trkpt>
      <trkpt lat="46.20827" lon="5.66251">
        <ele>903.2</ele>
      </trkpt>
      <trkpt lat="46.20836" lon="5.66279">
        <ele>902</ele>
      </trkpt>
      <trkpt lat="46.2084" lon="5.66309">
        <ele>901.9</ele>
      </trkpt>
      <trkpt lat="46.20842" lon="5.66333">
        <ele>901</ele>
      </trkpt>
      <trkpt lat="46.20839" lon="5.66375">
        <ele>899.4</ele>
      </trkpt>
      <trkpt lat="46.20834" lon="5.66425">
        <ele>899.4</ele>
      </trkpt>
      <trkpt lat="46.20839" lon="5.66459">
        <ele>897.8</ele>
      </trkpt>
      <trkpt lat="46.20853" lon="5.66499">
        <ele>897.3</ele>
      </trkpt>
      <trkpt lat="46.20859" lon="5.6651">
        <ele>893.3801</ele>
        <time>2022-02-24T18:46:52.135Z</time>
      </trkpt>
      <trkpt lat="46.20883" lon="5.66535">
        <ele>893.042459</ele>
        <time>2022-02-24T18:46:38.936Z</time>
      </trkpt>
      <trkpt lat="46.20898" lon="5.6656">
        <ele>892.789995</ele>
        <time>2022-02-24T18:46:29.138Z</time>
      </trkpt>
      <trkpt lat="46.20919" lon="5.66618">
        <ele>892.278651</ele>
        <time>2022-02-24T18:46:09.747Z</time>
      </trkpt>
      <trkpt lat="46.20952" lon="5.66667">
        <ele>891.846777</ele>
        <time>2022-02-24T18:45:49.618Z</time>
      </trkpt>
      <trkpt lat="46.2096" lon="5.66677">
        <ele>891.917118</ele>
        <time>2022-02-24T18:45:44.668Z</time>
      </trkpt>
      <trkpt lat="46.20976" lon="5.66698">
        <ele>892.063687</ele>
        <time>2022-02-24T18:45:35.355Z</time>
      </trkpt>
      <trkpt lat="46.20978" lon="5.66703">
        <ele>892.090747</ele>
        <time>2022-02-24T18:45:33.613Z</time>
      </trkpt>
      <trkpt lat="46.20993" lon="5.66735">
        <ele>892.269541</ele>
        <time>2022-02-24T18:45:22.608Z</time>
      </trkpt>
      <trkpt lat="46.20996" lon="5.6677">
        <ele>892.435097</ele>
        <time>2022-02-24T18:45:12.521Z</time>
      </trkpt>
      <trkpt lat="46.21006" lon="5.66843">
        <ele>892.776638</ele>
        <time>2022-02-24T18:44:51.929Z</time>
      </trkpt>
      <trkpt lat="46.21013" lon="5.66858">
        <ele>892.862423</ele>
        <time>2022-02-24T18:44:46.805Z</time>
      </trkpt>
      <trkpt lat="46.21037" lon="5.66882">
        <ele>893.58023</ele>
        <time>2022-02-24T18:44:35.753Z</time>
      </trkpt>
      <trkpt lat="46.21048" lon="5.6689">
        <ele>894.733793</ele>
        <time>2022-02-24T18:44:31.365Z</time>
      </trkpt>
      <trkpt lat="46.2106" lon="5.66915">
        <ele>896.746861</ele>
        <time>2022-02-24T18:44:23.427Z</time>
      </trkpt>
      <trkpt lat="46.21076" lon="5.66972">
        <ele>900.811824</ele>
        <time>2022-02-24T18:44:07.817Z</time>
      </trkpt>
      <trkpt lat="46.21083" lon="5.67007">
        <ele>903.156181</ele>
        <time>2022-02-24T18:43:59.595Z</time>
      </trkpt>
      <trkpt lat="46.21106" lon="5.67068">
        <ele>895.4</ele>
      </trkpt>
      <trkpt lat="46.21115" lon="5.67079">
        <ele>894.7</ele>
      </trkpt>
      <trkpt lat="46.21129" lon="5.67101">
        <ele>893.8</ele>
      </trkpt>
      <trkpt lat="46.21165" lon="5.67124">
        <ele>894.4</ele>
      </trkpt>
      <trkpt lat="46.21218" lon="5.67143">
        <ele>895.5</ele>
      </trkpt>
      <trkpt lat="46.21233" lon="5.67178">
        <ele>895.7</ele>
      </trkpt>
      <trkpt lat="46.21246" lon="5.67207">
        <ele>893.9</ele>
      </trkpt>
      <trkpt lat="46.21265" lon="5.6726">
        <ele>890.8</ele>
      </trkpt>
      <trkpt lat="46.21309" lon="5.6736">
        <ele>891.5</ele>
      </trkpt>
      <trkpt lat="46.21339" lon="5.67393">
        <ele>891.4</ele>
      </trkpt>
      <trkpt lat="46.21349" lon="5.67423">
        <ele>892.1</ele>
      </trkpt>
      <trkpt lat="46.21365" lon="5.67456">
        <ele>892.2</ele>
      </trkpt>
      <trkpt lat="46.21385" lon="5.67484">
        <ele>893.4</ele>
      </trkpt>
      <trkpt lat="46.21426" lon="5.6752">
        <ele>895.5</ele>
      </trkpt>
      <trkpt lat="46.21473" lon="5.6755">
        <ele>896.2</ele>
      </trkpt>
      <trkpt lat="46.21565" lon="5.67623">
        <ele>901.8</ele>
      </trkpt>
      <trkpt lat="46.21637" lon="5.67665">
        <ele>896.8</ele>
      </trkpt>
      <trkpt lat="46.21674" lon="5.67694">
        <ele>896.3</ele>
      </trkpt>
      <trkpt lat="46.21698" lon="5.67715">
        <ele>897.3</ele>
      </trkpt>
      <trkpt lat="46.21786" lon="5.67821">
        <ele>901.4</ele>
      </trkpt>
      <trkpt lat="46.21809" lon="5.67862">
        <ele>902.9</ele>
      </trkpt>
      <trkpt lat="46.21858" lon="5.67916">
        <ele>918.9</ele>
      </trkpt>
      <trkpt lat="46.2189" lon="5.67974">
        <ele>930.2</ele>
      </trkpt>
      <trkpt lat="46.2192" lon="5.68036">
        <ele>934.2</ele>
      </trkpt>
      <trkpt lat="46.219" lon="5.68139">
        <ele>953.1</ele>
      </trkpt>
      <trkpt lat="46.21842" lon="5.68273">
        <ele>973</ele>
      </trkpt>
      <trkpt lat="46.21855" lon="5.68368">
        <ele>972.1</ele>
      </trkpt>
      <trkpt lat="46.21831" lon="5.68417">
        <ele>963.9</ele>
      </trkpt>
      <trkpt lat="46.21841" lon="5.68453">
        <ele>954.2</ele>
      </trkpt>
      <trkpt lat="46.21888" lon="5.68482">
        <ele>950.2</ele>
      </trkpt>
      <trkpt lat="46.21954" lon="5.68536">
        <ele>951.2</ele>
      </trkpt>
      <trkpt lat="46.21986" lon="5.68569">
        <ele>948.5</ele>
      </trkpt>
      <trkpt lat="46.22022" lon="5.6862">
        <ele>941</ele>
      </trkpt>
      <trkpt lat="46.22014" lon="5.68657">
        <ele>943.2</ele>
      </trkpt>
      <trkpt lat="46.22003" lon="5.68745">
        <ele>948.4</ele>
      </trkpt>
      <trkpt lat="46.21994" lon="5.68777">
        <ele>949.8</ele>
      </trkpt>
      <trkpt lat="46.21998" lon="5.68826">
        <ele>948.3</ele>
      </trkpt>
      <trkpt lat="46.22013" lon="5.68891">
        <ele>945.1</ele>
      </trkpt>
      <trkpt lat="46.22028" lon="5.68923">
        <ele>944.8</ele>
      </trkpt>
      <trkpt lat="46.22129" lon="5.69009">
        <ele>939</ele>
      </trkpt>
      <trkpt lat="46.22208" lon="5.6902">
        <ele>943</ele>
      </trkpt>
      <trkpt lat="46.22259" lon="5.69049">
        <ele>939.5</ele>
      </trkpt>
      <trkpt lat="46.2233" lon="5.69053">
        <ele>931.1</ele>
      </trkpt>
      <trkpt lat="46.22364" lon="5.69058">
        <ele>926.4</ele>
      </trkpt>
      <trkpt lat="46.2242" lon="5.69061">
        <ele>919.8</ele>
      </trkpt>
      <trkpt lat="46.22467" lon="5.69081">
        <ele>921.8</ele>
      </trkpt>
      <trkpt lat="46.22533" lon="5.69077">
        <ele>926.4</ele>
      </trkpt>
      <trkpt lat="46.22593" lon="5.69104">
        <ele>927.9</ele>
      </trkpt>
      <trkpt lat="46.2261" lon="5.69101">
        <ele>928.5</ele>
      </trkpt>
      <trkpt lat="46.22647" lon="5.69077">
        <ele>930.7</ele>
      </trkpt>
      <trkpt lat="46.22671" lon="5.69086">
        <ele>934.6</ele>
      </trkpt>
      <trkpt lat="46.22677" lon="5.69084">
        <ele>935.1</ele>
      </trkpt>
      <trkpt lat="46.22693" lon="5.6911">
        <ele>934.2</ele>
      </trkpt>
      <trkpt lat="46.22783" lon="5.69188">
        <ele>927</ele>
      </trkpt>
      <trkpt lat="46.22791" lon="5.69208">
        <ele>925.5</ele>
      </trkpt>
      <trkpt lat="46.22786" lon="5.69238">
        <ele>918.5</ele>
      </trkpt>
      <trkpt lat="46.22797" lon="5.6928">
        <ele>915.5</ele>
      </trkpt>
      <trkpt lat="46.22852" lon="5.69366">
        <ele>915.2</ele>
      </trkpt>
      <trkpt lat="46.22898" lon="5.69458">
        <ele>925.5</ele>
      </trkpt>
      <trkpt lat="46.2295" lon="5.69509">
        <ele>931.8</ele>
      </trkpt>
      <trkpt lat="46.23015" lon="5.69517">
        <ele>939.9</ele>
      </trkpt>
      <trkpt lat="46.23035" lon="5.69529">
        <ele>939.7</ele>
      </trkpt>
      <trkpt lat="46.2303" lon="5.69535">
        <ele>939.4</ele>
      </trkpt>
      <trkpt lat="46.23024" lon="5.69547">
        <ele>938.2</ele>
      </trkpt>
      <trkpt lat="46.23024" lon="5.6956">
        <ele>936.9</ele>
      </trkpt>
      <trkpt lat="46.23026" lon="5.69572">
        <ele>936.2</ele>
      </trkpt>
      <trkpt lat="46.23029" lon="5.69586">
        <ele>935.4</ele>
      </trkpt>
      <trkpt lat="46.23035" lon="5.69593">
        <ele>934.4</ele>
      </trkpt>
      <trkpt lat="46.23068" lon="5.69623">
        <ele>933.8</ele>
      </trkpt>
      <trkpt lat="46.23094" lon="5.69655">
        <ele>930.4</ele>
      </trkpt>
      <trkpt lat="46.23111" lon="5.69721">
        <ele>924</ele>
      </trkpt>
      <trkpt lat="46.23121" lon="5.69751">
        <ele>923.7</ele>
      </trkpt>
      <trkpt lat="46.23123" lon="5.69762">
        <ele>921.5</ele>
      </trkpt>
      <trkpt lat="46.2312" lon="5.69778">
        <ele>917.2</ele>
      </trkpt>
      <trkpt lat="46.23103" lon="5.69801">
        <ele>913.6</ele>
      </trkpt>
      <trkpt lat="46.23088" lon="5.69809">
        <ele>910.1</ele>
      </trkpt>
      <trkpt lat="46.23021" lon="5.69816">
        <ele>910</ele>
      </trkpt>
      <trkpt lat="46.23007" lon="5.69788">
        <ele>910.1</ele>
      </trkpt>
      <trkpt lat="46.22993" lon="5.69724">
        <ele>906.4</ele>
      </trkpt>
      <trkpt lat="46.22922" lon="5.69616">
        <ele>902.2</ele>
      </trkpt>
      <trkpt lat="46.22856" lon="5.6958">
        <ele>897.6</ele>
      </trkpt>
      <trkpt lat="46.22819" lon="5.69579">
        <ele>894.9</ele>
      </trkpt>
      <trkpt lat="46.22795" lon="5.69594">
        <ele>893.2</ele>
      </trkpt>
      <trkpt lat="46.2278" lon="5.69639">
        <ele>890.6</ele>
      </trkpt>
      <trkpt lat="46.22779" lon="5.69676">
        <ele>887.9</ele>
      </trkpt>
      <trkpt lat="46.22797" lon="5.69725">
        <ele>886.4</ele>
      </trkpt>
      <trkpt lat="46.22814" lon="5.69768">
        <ele>884.2</ele>
      </trkpt>
      <trkpt lat="46.22825" lon="5.69816">
        <ele>882.5</ele>
      </trkpt>
      <trkpt lat="46.22828" lon="5.69869">
        <ele>879.5</ele>
      </trkpt>
      <trkpt lat="46.22837" lon="5.69931">
        <ele>878.4</ele>
      </trkpt>
      <trkpt lat="46.22882" lon="5.70016">
        <ele>872.9</ele>
      </trkpt>
      <trkpt lat="46.22924" lon="5.70084">
        <ele>869.2</ele>
      </trkpt>
      <trkpt lat="46.22937" lon="5.70124">
        <ele>890.703507</ele>
        <time>2022-02-24T19:43:51.303Z</time>
      </trkpt>
      <trkpt lat="46.22921" lon="5.70106">
        <ele>888.564341</ele>
        <time>2022-02-24T19:43:34.807Z</time>
      </trkpt>
      <trkpt lat="46.22911" lon="5.70097">
        <ele>887.28012</ele>
        <time>2022-02-24T19:43:26.418Z</time>
      </trkpt>
      <trkpt lat="46.22883" lon="5.70102">
        <ele>884.524375</ele>
        <time>2022-02-24T19:43:03.347Z</time>
      </trkpt>
      <trkpt lat="46.22851" lon="5.70076">
        <ele>881.307837</ele>
        <time>2022-02-24T19:42:33.976Z</time>
      </trkpt>
      <trkpt lat="46.22765" lon="5.70071">
        <ele>873.870733</ele>
        <time>2022-02-24T19:41:30.011Z</time>
      </trkpt>
      <trkpt lat="46.2273" lon="5.70046">
        <ele>870.460138</ele>
        <time>2022-02-24T19:41:05.475Z</time>
      </trkpt>
      <trkpt lat="46.22683" lon="5.70039">
        <ele>870.000052</ele>
        <time>2022-02-24T19:40:38.173Z</time>
      </trkpt>
      <trkpt lat="46.22656" lon="5.70029">
        <ele>869.858865</ele>
        <time>2022-02-24T19:40:23.978Z</time>
      </trkpt>
      <trkpt lat="46.22628" lon="5.70005">
        <ele>869.693395</ele>
        <time>2022-02-24T19:40:07.948Z</time>
      </trkpt>
      <trkpt lat="46.22614" lon="5.70004">
        <ele>869.621164</ele>
        <time>2022-02-24T19:40:00.544Z</time>
      </trkpt>
      <trkpt lat="46.22601" lon="5.70003">
        <ele>869.557591</ele>
        <time>2022-02-24T19:39:55.191Z</time>
      </trkpt>
      <trkpt lat="46.22575" lon="5.70024">
        <ele>869.402388</ele>
        <time>2022-02-24T19:39:41.652Z</time>
      </trkpt>
      <trkpt lat="46.22534" lon="5.70041">
        <ele>869.632311</ele>
        <time>2022-02-24T19:39:23.357Z</time>
      </trkpt>
      <trkpt lat="46.22487" lon="5.70021">
        <ele>870.30029</ele>
        <time>2022-02-24T19:39:01.577Z</time>
      </trkpt>
      <trkpt lat="46.22475" lon="5.70026">
        <ele>870.465991</ele>
        <time>2022-02-24T19:38:56.075Z</time>
      </trkpt>
      <trkpt lat="46.22442" lon="5.70059">
        <ele>870.99806</ele>
        <time>2022-02-24T19:38:38.251Z</time>
      </trkpt>
      <trkpt lat="46.22419" lon="5.70059">
        <ele>871.318774</ele>
        <time>2022-02-24T19:38:25.656Z</time>
      </trkpt>
      <trkpt lat="46.22387" lon="5.70046">
        <ele>871.62426</ele>
        <time>2022-02-24T19:38:08.403Z</time>
      </trkpt>
      <trkpt lat="46.22374" lon="5.70031">
        <ele>870.438761</ele>
        <time>2022-02-24T19:37:59.300Z</time>
      </trkpt>
      <trkpt lat="46.2235" lon="5.70029">
        <ele>868.763125</ele>
        <time>2022-02-24T19:37:44.918Z</time>
      </trkpt>
      <trkpt lat="46.22327" lon="5.70033">
        <ele>867.08456</ele>
        <time>2022-02-24T19:37:30.773Z</time>
      </trkpt>
      <trkpt lat="46.22316" lon="5.70011">
        <ele>865.809093</ele>
        <time>2022-02-24T19:37:18.850Z</time>
      </trkpt>
      <trkpt lat="46.22328" lon="5.69975">
        <ele>863.847325</ele>
        <time>2022-02-24T19:36:57.717Z</time>
      </trkpt>
      <trkpt lat="46.22325" lon="5.69919">
        <ele>861.1262</ele>
        <time>2022-02-24T19:36:28.814Z</time>
      </trkpt>
      <trkpt lat="46.22331" lon="5.69887">
        <ele>859.506693</ele>
        <time>2022-02-24T19:36:12.040Z</time>
      </trkpt>
      <trkpt lat="46.22292" lon="5.69863">
        <ele>857.047431</ele>
        <time>2022-02-24T19:35:40.278Z</time>
      </trkpt>
      <trkpt lat="46.22285" lon="5.69846">
        <ele>856.254905</ele>
        <time>2022-02-24T19:35:30.153Z</time>
      </trkpt>
      <trkpt lat="46.22301" lon="5.69803">
        <ele>854.331759</ele>
        <time>2022-02-24T19:35:08.049Z</time>
      </trkpt>
      <trkpt lat="46.22291" lon="5.69741">
        <ele>851.813551</ele>
        <time>2022-02-24T19:34:43.071Z</time>
      </trkpt>
      <trkpt lat="46.2226" lon="5.69687">
        <ele>849.064823</ele>
        <time>2022-02-24T19:34:16.965Z</time>
      </trkpt>
      <trkpt lat="46.22238" lon="5.69675">
        <ele>848.590195</ele>
        <time>2022-02-24T19:34:04.398Z</time>
      </trkpt>
      <trkpt lat="46.22225" lon="5.69658">
        <ele>848.331</ele>
        <time>2022-02-24T19:33:54.875Z</time>
      </trkpt>
      <trkpt lat="46.22184" lon="5.69628">
        <ele>847.683811</ele>
        <time>2022-02-24T19:33:31.389Z</time>
      </trkpt>
      <trkpt lat="46.22179" lon="5.69606">
        <ele>847.44724</ele>
        <time>2022-02-24T19:33:23.019Z</time>
      </trkpt>
      <trkpt lat="46.22174" lon="5.69603">
        <ele>847.375957</ele>
        <time>2022-02-24T19:33:20.615Z</time>
      </trkpt>
      <trkpt lat="46.22169" lon="5.69599">
        <ele>847.293932</ele>
        <time>2022-02-24T19:33:17.639Z</time>
      </trkpt>
      <trkpt lat="46.22154" lon="5.69597">
        <ele>847.078527</ele>
        <time>2022-02-24T19:33:10.002Z</time>
      </trkpt>
      <trkpt lat="46.22142" lon="5.69597">
        <ele>846.909687</ele>
        <time>2022-02-24T19:33:04.168Z</time>
      </trkpt>
      <trkpt lat="46.2211" lon="5.69569">
        <ele>846.3729</ele>
        <time>2022-02-24T19:32:45.651Z</time>
      </trkpt>
      <trkpt lat="46.22095" lon="5.69566">
        <ele>846.443412</ele>
        <time>2022-02-24T19:32:38.460Z</time>
      </trkpt>
      <trkpt lat="46.22076" lon="5.69559">
        <ele>846.708409</ele>
        <time>2022-02-24T19:32:28.859Z</time>
      </trkpt>
      <trkpt lat="46.22052" lon="5.69563">
        <ele>847.036219</ele>
        <time>2022-02-24T19:32:17.143Z</time>
      </trkpt>
      <trkpt lat="46.22017" lon="5.69534">
        <ele>847.575034</ele>
        <time>2022-02-24T19:31:57.818Z</time>
      </trkpt>
      <trkpt lat="46.22013" lon="5.69534">
        <ele>847.631525</ele>
        <time>2022-02-24T19:31:55.783Z</time>
      </trkpt>
      <trkpt lat="46.22" lon="5.69536">
        <ele>847.79558</ele>
        <time>2022-02-24T19:31:49.966Z</time>
      </trkpt>
      <trkpt lat="46.21988" lon="5.69525">
        <ele>839.3</ele>
        <time>2022-02-24T19:31:38.665Z</time>
      </trkpt>
      <trkpt lat="46.21963" lon="5.69519">
        <ele>839.1</ele>
        <time>2022-02-24T19:31:36.822Z</time>
      </trkpt>
      <trkpt lat="46.21926" lon="5.69533">
        <ele>839.7</ele>
        <time>2022-02-24T19:31:29.304Z</time>
      </trkpt>
      <trkpt lat="46.21923" lon="5.69496">
        <ele>840.9</ele>
        <time>2022-02-24T19:31:21.429Z</time>
      </trkpt>
      <trkpt lat="46.21913" lon="5.69489">
        <ele>840.7</ele>
      </trkpt>
      <trkpt lat="46.21903" lon="5.69482">
        <ele>840</ele>
        <time>2022-02-24T19:31:16.567Z</time>
      </trkpt>
      <trkpt lat="46.2189" lon="5.69472">
        <ele>839.2</ele>
        <time>2022-02-24T19:31:09.718Z</time>
      </trkpt>
      <trkpt lat="46.2188" lon="5.69465">
        <ele>839.6</ele>
        <time>2022-02-24T19:30:57.019Z</time>
      </trkpt>
      <trkpt lat="46.21861" lon="5.6945">
        <ele>839.8</ele>
      </trkpt>
      <trkpt lat="46.21845" lon="5.69447">
        <ele>840</ele>
        <time>2022-02-24T19:30:53.131Z</time>
      </trkpt>
      <trkpt lat="46.21825" lon="5.69442">
        <ele>840.6</ele>
        <time>2022-02-24T19:30:48.323Z</time>
      </trkpt>
      <trkpt lat="46.21812" lon="5.69438">
        <ele>841</ele>
        <time>2022-02-24T19:30:40.029Z</time>
      </trkpt>
      <trkpt lat="46.21797" lon="5.69435">
        <ele>841.2</ele>
        <time>2022-02-24T19:30:24.502Z</time>
      </trkpt>
      <trkpt lat="46.21775" lon="5.69432">
        <ele>840.9</ele>
        <time>2022-02-24T19:30:02.503Z</time>
      </trkpt>
      <trkpt lat="46.21745" lon="5.6943">
        <ele>841.4</ele>
        <time>2022-02-24T19:29:22.956Z</time>
      </trkpt>
      <trkpt lat="46.21722" lon="5.69429">
        <ele>843</ele>
        <time>2022-02-24T19:29:12.831Z</time>
      </trkpt>
      <trkpt lat="46.21706" lon="5.69421">
        <ele>873.656355</ele>
        <time>2022-02-24T19:29:04.667Z</time>
      </trkpt>
      <trkpt lat="46.21658" lon="5.69389">
        <ele>878.859167</ele>
        <time>2022-02-24T19:28:44.203Z</time>
      </trkpt>
      <trkpt lat="46.21628" lon="5.69347">
        <ele>883.036112</ele>
        <time>2022-02-24T19:28:28.360Z</time>
      </trkpt>
      <trkpt lat="46.21622" lon="5.69299">
        <ele>886.463171</ele>
        <time>2022-02-24T19:28:15.410Z</time>
      </trkpt>
      <trkpt lat="46.21634" lon="5.69272">
        <ele>888.649684</ele>
        <time>2022-02-24T19:28:06.915Z</time>
      </trkpt>
      <trkpt lat="46.21635" lon="5.69237">
        <ele>891.055656</ele>
        <time>2022-02-24T19:27:57.507Z</time>
      </trkpt>
      <trkpt lat="46.21613" lon="5.69227">
        <ele>893.222323</ele>
        <time>2022-02-24T19:27:48.497Z</time>
      </trkpt>
      <trkpt lat="46.21586" lon="5.6923">
        <ele>895.273623</ele>
        <time>2022-02-24T19:27:37.848Z</time>
      </trkpt>
      <trkpt lat="46.21557" lon="5.69206">
        <ele>897.861283</ele>
        <time>2022-02-24T19:27:24.332Z</time>
      </trkpt>
      <trkpt lat="46.21519" lon="5.6916">
        <ele>901.602472</ele>
        <time>2022-02-24T19:27:04.625Z</time>
      </trkpt>
      <trkpt lat="46.21496" lon="5.69152">
        <ele>903.442677</ele>
        <time>2022-02-24T19:26:54.822Z</time>
      </trkpt>
      <trkpt lat="46.21497" lon="5.69118">
        <ele>888.7</ele>
      </trkpt>
      <trkpt lat="46.21504" lon="5.69087">
        <ele>888.5</ele>
      </trkpt>
      <trkpt lat="46.21513" lon="5.6907">
        <ele>892.1</ele>
      </trkpt>
      <trkpt lat="46.21538" lon="5.69056">
        <ele>896.3</ele>
      </trkpt>
      <trkpt lat="46.21538" lon="5.69051">
        <ele>896.9</ele>
      </trkpt>
      <trkpt lat="46.21504" lon="5.69022">
        <ele>897.3</ele>
      </trkpt>
      <trkpt lat="46.2149" lon="5.69002">
        <ele>899.1</ele>
      </trkpt>
      <trkpt lat="46.21464" lon="5.68974">
        <ele>899.6</ele>
      </trkpt>
      <trkpt lat="46.21429" lon="5.68952">
        <ele>901.9</ele>
      </trkpt>
      <trkpt lat="46.21417" lon="5.68943">
        <ele>904.3</ele>
      </trkpt>
      <trkpt lat="46.21413" lon="5.68937">
        <ele>904.8</ele>
      </trkpt>
      <trkpt lat="46.21411" lon="5.68928">
        <ele>905.8</ele>
      </trkpt>
      <trkpt lat="46.2141" lon="5.68921">
        <ele>906.7</ele>
      </trkpt>
      <trkpt lat="46.21332" lon="5.68887">
        <ele>902.2</ele>
      </trkpt>
      <trkpt lat="46.2127" lon="5.68871">
        <ele>898.4</ele>
      </trkpt>
      <trkpt lat="46.21233" lon="5.68869">
        <ele>898.8</ele>
      </trkpt>
      <trkpt lat="46.21205" lon="5.68854">
        <ele>900.1</ele>
      </trkpt>
      <trkpt lat="46.21135" lon="5.6879">
        <ele>904.5</ele>
      </trkpt>
      <trkpt lat="46.2112" lon="5.68757">
        <ele>906.8</ele>
      </trkpt>
      <trkpt lat="46.20933" lon="5.68678">
        <ele>897.1</ele>
      </trkpt>
      <trkpt lat="46.20912" lon="5.68652">
        <ele>897.5</ele>
      </trkpt>
      <trkpt lat="46.20877" lon="5.68634">
        <ele>897</ele>
      </trkpt>
      <trkpt lat="46.20806" lon="5.68628">
        <ele>893.8</ele>
      </trkpt>
      <trkpt lat="46.20777" lon="5.68619">
        <ele>896.1</ele>
      </trkpt>
      <trkpt lat="46.20751" lon="5.68604">
        <ele>898</ele>
      </trkpt>
      <trkpt lat="46.20732" lon="5.68592">
        <ele>901.132633</ele>
        <time>2022-02-24T19:17:25.201Z</time>
      </trkpt>
      <trkpt lat="46.20739" lon="5.68569">
        <ele>901.451295</ele>
        <time>2022-02-24T19:17:18.864Z</time>
      </trkpt>
      <trkpt lat="46.207" lon="5.68536">
        <ele>902.300013</ele>
        <time>2022-02-24T19:17:01.261Z</time>
      </trkpt>
      <trkpt lat="46.20583" lon="5.68492">
        <ele>902.079213</ele>
        <time>2022-02-24T19:16:10.847Z</time>
      </trkpt>
      <trkpt lat="46.20496" lon="5.6841">
        <ele>899.822896</ele>
        <time>2022-02-24T19:15:23.533Z</time>
      </trkpt>
      <trkpt lat="46.20426" lon="5.68376">
        <ele>897.242142</ele>
        <time>2022-02-24T19:14:47.705Z</time>
      </trkpt>
      <trkpt lat="46.20404" lon="5.6834">
        <ele>895.970737</ele>
        <time>2022-02-24T19:14:31.210Z</time>
      </trkpt>
      <trkpt lat="46.20365" lon="5.68314">
        <ele>894.327534</ele>
        <time>2022-02-24T19:14:10.383Z</time>
      </trkpt>
      <trkpt lat="46.20258" lon="5.68272">
        <ele>890.899944</ele>
        <time>2022-02-24T19:13:18.550Z</time>
      </trkpt>
      <trkpt lat="46.20239" lon="5.68249">
        <ele>890.268727</ele>
        <time>2022-02-24T19:13:07.448Z</time>
      </trkpt>
      <trkpt lat="46.20206" lon="5.68215">
        <ele>889.220043</ele>
        <time>2022-02-24T19:12:48.936Z</time>
      </trkpt>
      <trkpt lat="46.20181" lon="5.68189">
        <ele>888.428818</ele>
        <time>2022-02-24T19:12:35.394Z</time>
      </trkpt>
      <trkpt lat="46.20106" lon="5.6813">
        <ele>886.853698</ele>
        <time>2022-02-24T19:11:58.114Z</time>
      </trkpt>
      <trkpt lat="46.20048" lon="5.68088">
        <ele>885.809643</ele>
        <time>2022-02-24T19:11:30.006Z</time>
      </trkpt>
      <trkpt lat="46.19935" lon="5.6798">
        <ele>884.444451</ele>
        <time>2022-02-24T19:10:30.639Z</time>
      </trkpt>
      <trkpt lat="46.19862" lon="5.67968">
        <ele>883.955317</ele>
        <time>2022-02-24T19:09:59.498Z</time>
      </trkpt>
      <trkpt lat="46.19828" lon="5.67949">
        <ele>884.495493</ele>
        <time>2022-02-24T19:09:45.162Z</time>
      </trkpt>
      <trkpt lat="46.19756" lon="5.67881">
        <ele>887.639334</ele>
        <time>2022-02-24T19:09:12.252Z</time>
      </trkpt>
      <trkpt lat="46.19736" lon="5.67854">
        <ele>888.630539</ele>
        <time>2022-02-24T19:09:02.235Z</time>
      </trkpt>
      <trkpt lat="46.19745" lon="5.67847">
        <ele>888.99873</ele>
        <time>2022-02-24T19:08:58.653Z</time>
      </trkpt>
      <trkpt lat="46.19761" lon="5.67833">
        <ele>889.67871</ele>
        <time>2022-02-24T19:08:51.876Z</time>
      </trkpt>
      <trkpt lat="46.19835" lon="5.67837">
        <ele>894.8486</ele>
        <time>2022-02-24T19:08:25.641Z</time>
      </trkpt>
      <trkpt lat="46.19851" lon="5.67824">
        <ele>896.398061</ele>
        <time>2022-02-24T19:08:19.114Z</time>
      </trkpt>
      <trkpt lat="46.19853" lon="5.67806">
        <ele>897.467352</ele>
        <time>2022-02-24T19:08:14.785Z</time>
      </trkpt>
      <trkpt lat="46.19871" lon="5.67803">
        <ele>902.733706</ele>
        <time>2022-02-24T19:07:52.572Z</time>
      </trkpt>
      <trkpt lat="46.19896" lon="5.67805">
        <ele>904.804092</ele>
        <time>2022-02-24T19:07:42.548Z</time>
      </trkpt>
      <trkpt lat="46.19944" lon="5.67834">
        <ele>910.501906</ele>
        <time>2022-02-24T19:07:22.080Z</time>
      </trkpt>
      <trkpt lat="46.19955" lon="5.67825">
        <ele>911.868341</ele>
        <time>2022-02-24T19:07:17.434Z</time>
      </trkpt>
      <trkpt lat="46.19957" lon="5.67825">
        <ele>912.136702</ele>
        <time>2022-02-24T19:07:16.454Z</time>
      </trkpt>
      <trkpt lat="46.19964" lon="5.67815">
        <ele>913.177091</ele>
        <time>2022-02-24T19:07:12.932Z</time>
      </trkpt>
      <trkpt lat="46.19962" lon="5.67782">
        <ele>915.761977</ele>
        <time>2022-02-24T19:07:03.788Z</time>
      </trkpt>
      <trkpt lat="46.19971" lon="5.67763">
        <ele>917.492196</ele>
        <time>2022-02-24T19:06:57.934Z</time>
      </trkpt>
      <trkpt lat="46.19981" lon="5.67755">
        <ele>918.854792</ele>
        <time>2022-02-24T19:06:52.995Z</time>
      </trkpt>
      <trkpt lat="46.19984" lon="5.67752">
        <ele>919.255431</ele>
        <time>2022-02-24T19:06:51.638Z</time>
      </trkpt>
      <trkpt lat="46.20033" lon="5.6774">
        <ele>924.810311</ele>
        <time>2022-02-24T19:06:32.810Z</time>
      </trkpt>
      <trkpt lat="46.20052" lon="5.67752">
        <ele>927.139435</ele>
        <time>2022-02-24T19:06:24.896Z</time>
      </trkpt>
      <trkpt lat="46.20058" lon="5.67757">
        <ele>927.991835</ele>
        <time>2022-02-24T19:06:22.145Z</time>
      </trkpt>
      <trkpt lat="46.2012" lon="5.67675">
        <ele>937.660653</ele>
        <time>2022-02-24T19:05:50.210Z</time>
      </trkpt>
      <trkpt lat="46.20194" lon="5.67599">
        <ele>947.509246</ele>
        <time>2022-02-24T19:05:15.813Z</time>
      </trkpt>
      <trkpt lat="46.20239" lon="5.67579">
        <ele>951.310352</ele>
        <time>2022-02-24T19:04:57.748Z</time>
      </trkpt>
      <trkpt lat="46.2024" lon="5.67453">
        <ele>958.356435</ele>
        <time>2022-02-24T19:04:22.308Z</time>
      </trkpt>
      <trkpt lat="46.20202" lon="5.67381">
        <ele>961.412564</ele>
        <time>2022-02-24T19:03:55.414Z</time>
      </trkpt>
      <trkpt lat="46.2022" lon="5.67381">
        <ele>961.79293</ele>
        <time>2022-02-24T19:03:48.490Z</time>
      </trkpt>
      <trkpt lat="46.20239" lon="5.6738">
        <ele>962.181879</ele>
        <time>2022-02-24T19:03:41.342Z</time>
      </trkpt>
      <trkpt lat="46.2029" lon="5.67406">
        <ele>963.341625</ele>
        <time>2022-02-24T19:03:19.635Z</time>
      </trkpt>
      <trkpt lat="46.2029" lon="5.67407">
        <ele>963.348164</ele>
        <time>2022-02-24T19:03:19.220Z</time>
      </trkpt>
      <trkpt lat="46.20333" lon="5.67488">
        <ele>965.009814</ele>
        <time>2022-02-24T19:02:50.196Z</time>
      </trkpt>
      <trkpt lat="46.20356" lon="5.67502">
        <ele>965.761825</ele>
        <time>2022-02-24T19:02:40.070Z</time>
      </trkpt>
      <trkpt lat="46.20383" lon="5.67435">
        <ele>967.398488</ele>
        <time>2022-02-24T19:02:15.416Z</time>
      </trkpt>
      <trkpt lat="46.204" lon="5.67342">
        <ele>969.436095</ele>
        <time>2022-02-24T19:01:46.015Z</time>
      </trkpt>
      <trkpt lat="46.20333" lon="5.67223">
        <ele>975.772046</ele>
        <time>2022-02-24T19:01:02.861Z</time>
      </trkpt>
      <trkpt lat="46.20343" lon="5.67148">
        <ele>979.279676</ele>
        <time>2022-02-24T19:00:41.676Z</time>
      </trkpt>
      <trkpt lat="46.20331" lon="5.67075">
        <ele>981.697512</ele>
        <time>2022-02-24T19:00:19.485Z</time>
      </trkpt>
      <trkpt lat="46.20366" lon="5.67046">
        <ele>980.636201</ele>
        <time>2022-02-24T19:00:00.951Z</time>
      </trkpt>
      <trkpt lat="46.20418" lon="5.67035">
        <ele>979.271078</ele>
        <time>2022-02-24T18:59:35.562Z</time>
      </trkpt>
      <trkpt lat="46.20413" lon="5.67005">
        <ele>978.731851</ele>
        <time>2022-02-24T18:59:11.955Z</time>
      </trkpt>
      <trkpt lat="46.20416" lon="5.66989">
        <ele>978.42668</ele>
        <time>2022-02-24T18:58:55.539Z</time>
      </trkpt>
      <trkpt lat="46.20403" lon="5.66959">
        <ele>977.782295</ele>
        <time>2022-02-24T18:58:26.077Z</time>
      </trkpt>
      <trkpt lat="46.204" lon="5.66923">
        <ele>976.319317</ele>
        <time>2022-02-24T18:57:55.556Z</time>
      </trkpt>
      <trkpt lat="46.20403" lon="5.66857">
        <ele>970.402423</ele>
        <time>2022-02-24T18:56:48.118Z</time>
      </trkpt>
      <trkpt lat="46.20415" lon="5.66823">
        <ele>967.009486</ele>
        <time>2022-02-24T18:56:11.456Z</time>
      </trkpt>
      <trkpt lat="46.20426" lon="5.66799">
        <ele>964.414983</ele>
        <time>2022-02-24T18:55:34.993Z</time>
      </trkpt>
      <trkpt lat="46.20462" lon="5.66856">
        <ele>957.511205</ele>
        <time>2022-02-24T18:54:51.399Z</time>
      </trkpt>
      <trkpt lat="46.20492" lon="5.66876">
        <ele>953.000571</ele>
        <time>2022-02-24T18:54:17.656Z</time>
      </trkpt>
      <trkpt lat="46.20518" lon="5.66909">
        <ele>947.726071</ele>
        <time>2022-02-24T18:53:42.732Z</time>
      </trkpt>
      <trkpt lat="46.20596" lon="5.66943">
        <ele>935.135219</ele>
        <time>2022-02-24T18:52:27.949Z</time>
      </trkpt>
      <trkpt lat="46.20604" lon="5.66932">
        <ele>933.306956</ele>
        <time>2022-02-24T18:52:12.628Z</time>
      </trkpt>
      <trkpt lat="46.2064" lon="5.66891">
        <ele>926.329124</ele>
        <time>2022-02-24T18:51:30.698Z</time>
      </trkpt>
      <trkpt lat="46.20677" lon="5.66887">
        <ele>921.119072</ele>
        <time>2022-02-24T18:50:53.275Z</time>
      </trkpt>
      <trkpt lat="46.20714" lon="5.66839">
        <ele>914.328379</ele>
        <time>2022-02-24T18:50:04.651Z</time>
      </trkpt>
      <trkpt lat="46.20752" lon="5.66812">
        <ele>908.56874</ele>
        <time>2022-02-24T18:49:24.127Z</time>
      </trkpt>
      <trkpt lat="46.20768" lon="5.6676">
        <ele>903.101523</ele>
        <time>2022-02-24T18:48:52.944Z</time>
      </trkpt>
      <trkpt lat="46.20769" lon="5.66735">
        <ele>901.308541</ele>
        <time>2022-02-24T18:48:41.377Z</time>
      </trkpt>
      <trkpt lat="46.20763" lon="5.6672">
        <ele>900.790914</ele>
        <time>2022-02-24T18:48:33.558Z</time>
      </trkpt>
      <trkpt lat="46.20755" lon="5.66709">
        <ele>900.306657</ele>
        <time>2022-02-24T18:48:24.796Z</time>
      </trkpt>
      <trkpt lat="46.20759" lon="5.6666">
        <ele>898.847238</ele>
        <time>2022-02-24T18:48:04.570Z</time>
      </trkpt>
      <trkpt lat="46.20765" lon="5.66614">
        <ele>897.437803</ele>
        <time>2022-02-24T18:47:46.311Z</time>
      </trkpt>
      <trkpt lat="46.20776" lon="5.66615">
        <ele>896.973402</ele>
        <time>2022-02-24T18:47:41.295Z</time>
      </trkpt>
      <trkpt lat="46.20791" lon="5.66609">
        <ele>896.283615</ele>
        <time>2022-02-24T18:47:34.451Z</time>
      </trkpt>
      <trkpt lat="46.20806" lon="5.66594">
        <ele>895.519321</ele>
        <time>2022-02-24T18:47:25.769Z</time>
      </trkpt>
      <trkpt lat="46.20829" lon="5.66553">
        <ele>893.945704</ele>
        <time>2022-02-24T18:47:09.649Z</time>
      </trkpt>
      <trkpt lat="46.20834" lon="5.66541">
        <ele>893.750074</ele>
        <time>2022-02-24T18:47:05.755Z</time>
      </trkpt>
      <trkpt lat="46.20844" lon="5.66525">
        <ele>893.584635</ele>
        <time>2022-02-24T18:46:59.564Z</time>
      </trkpt>
      <trkpt lat="46.20851" lon="5.66517">
        <ele>893.488789</ele>
        <time>2022-02-24T18:46:55.909Z</time>
      </trkpt>
      <trkpt lat="46.20854" lon="5.66511">
        <ele>897.2</ele>
      </trkpt>
      <trkpt lat="46.20847" lon="5.66491">
        <ele>897.5</ele>
      </trkpt>
      <trkpt lat="46.20837" lon="5.6646">
        <ele>897.9</ele>
      </trkpt>
      <trkpt lat="46.20833" lon="5.66425">
        <ele>899.4</ele>
      </trkpt>
      <trkpt lat="46.20838" lon="5.66375">
        <ele>899.4</ele>
      </trkpt>
      <trkpt lat="46.2084" lon="5.66334">
        <ele>901</ele>
      </trkpt>
      <trkpt lat="46.20838" lon="5.66308">
        <ele>901.9</ele>
      </trkpt>
      <trkpt lat="46.20834" lon="5.66281">
        <ele>902</ele>
      </trkpt>
      <trkpt lat="46.20826" lon="5.66253">
        <ele>903.2</ele>
      </trkpt>
      <trkpt lat="46.20813" lon="5.66224">
        <ele>904.1</ele>
      </trkpt>
      <trkpt lat="46.20804" lon="5.66198">
        <ele>906</ele>
      </trkpt>
      <trkpt lat="46.20798" lon="5.66172">
        <ele>907.3</ele>
      </trkpt>
      <trkpt lat="46.20793" lon="5.6614">
        <ele>908.4</ele>
      </trkpt>
      <trkpt lat="46.20787" lon="5.66109">
        <ele>908</ele>
      </trkpt>
      <trkpt lat="46.2078" lon="5.66078">
        <ele>908.5</ele>
      </trkpt>
      <trkpt lat="46.20775" lon="5.66059">
        <ele>908.5</ele>
      </trkpt>
      <trkpt lat="46.20768" lon="5.66036">
        <ele>908.6</ele>
      </trkpt>
      <trkpt lat="46.20763" lon="5.66015">
        <ele>908.6</ele>
      </trkpt>
      <trkpt lat="46.20759" lon="5.65991">
        <ele>908.3</ele>
      </trkpt>
      <trkpt lat="46.20754" lon="5.65958">
        <ele>906.9</ele>
      </trkpt>
    </trkseg>
  </trk>
</gpx>